Time;durP1;ratioP1;P1;durP2;ratioP2;P2;SDS_P1;SDS_P2;PMS_P1;PMS_P2;Temp;Humidity;BMP_temperature;BMP_pressure;BME280_temperature;BME280_humidity;BME280_pressure;Samples;Min_cycle;Max_cycle;Signal;HPM_P1;HPM_P2
2023/06/11 00:00:42;;;;;;;9.30;6.53;;;26.90;69.40;;;;;;5073225;28;20017;-82
2023/06/11 00:03:07;;;;;;;9.40;6.38;;;26.90;69.50;;;;;;5073415;28;20029;-82
2023/06/11 00:05:33;;;;;;;14.88;6.97;;;26.90;69.50;;;;;;5073109;28;20021;-81
2023/06/11 00:08:00;;;;;;;10.63;6.25;;;26.90;69.70;;;;;;5072518;28;20024;-82
2023/06/11 00:10:26;;;;;;;7.18;6.25;;;26.80;69.70;;;;;;5073191;28;20027;-77
2023/06/11 00:12:52;;;;;;;9.25;6.55;;;26.80;69.70;;;;;;5072967;28;20024;-83
2023/06/11 00:15:17;;;;;;;9.43;6.35;;;26.80;69.90;;;;;;5073244;28;20025;-81
2023/06/11 00:17:43;;;;;;;8.48;6.40;;;26.80;70.00;;;;;;5072829;28;20036;-82
2023/06/11 00:20:11;;;;;;;12.00;6.32;;;26.80;70.20;;;;;;5072618;28;20021;-82
2023/06/11 00:22:38;;;;;;;9.18;6.63;;;26.70;70.10;;;;;;5072953;28;20077;-80
2023/06/11 00:25:05;;;;;;;11.32;6.30;;;26.70;70.20;;;;;;5072803;28;20024;-81
2023/06/11 00:27:31;;;;;;;7.72;6.68;;;26.70;70.30;;;;;;5072999;28;20035;-82
2023/06/11 00:29:57;;;;;;;9.50;6.50;;;26.70;70.40;;;;;;5072940;28;20382;-80
2023/06/11 00:32:22;;;;;;;9.50;6.82;;;26.70;70.50;;;;;;5072828;28;20029;-82
2023/06/11 00:34:48;;;;;;;9.00;7.13;;;26.60;70.60;;;;;;5072771;28;20126;-82
2023/06/11 00:37:13;;;;;;;9.07;7.45;;;26.60;70.70;;;;;;5072751;28;20040;-75
2023/06/11 00:39:39;;;;;;;10.15;6.55;;;26.60;70.70;;;;;;5073112;28;20111;-80
2023/06/11 00:42:05;;;;;;;11.18;6.57;;;26.50;70.80;;;;;;5071458;28;20024;-79
2023/06/11 00:44:31;;;;;;;10.00;6.95;;;26.50;70.90;;;;;;5072747;28;20059;-82
2023/06/11 00:47:00;;;;;;;8.30;6.40;;;26.50;71.00;;;;;;5074209;28;20029;-81
2023/06/11 00:49:26;;;;;;;7.68;6.57;;;26.50;71.20;;;;;;5091794;28;20038;-76
2023/06/11 00:51:52;;;;;;;10.65;6.35;;;26.40;71.20;;;;;;5092828;28;20028;-76
2023/06/11 00:54:18;;;;;;;7.95;6.05;;;26.40;71.30;;;;;;5090000;28;20020;-74
2023/06/11 00:56:43;;;;;;;9.35;6.13;;;26.40;71.40;;;;;;5091911;28;20047;-82
2023/06/11 00:59:11;;;;;;;8.45;6.32;;;26.40;71.60;;;;;;5092863;28;20469;-77
2023/06/11 01:01:56;;;;;;;7.57;6.80;;;26.40;71.70;;;;;;5093010;28;20640;-80
2023/06/11 01:04:23;;;;;;;8.23;6.50;;;26.30;71.80;;;;;;5092543;28;20036;-81
2023/06/11 01:06:54;;;;;;;9.65;6.72;;;26.30;71.90;;;;;;5092676;28;20020;-81
2023/06/11 01:09:22;;;;;;;8.50;6.72;;;26.30;72.10;;;;;;5092674;28;20046;-80
2023/06/11 01:11:53;;;;;;;7.53;6.30;;;26.20;72.20;;;;;;5092834;28;20073;-79
2023/06/11 01:14:20;;;;;;;6.82;5.90;;;26.20;72.20;;;;;;5092693;28;20100;-73
2023/06/11 01:16:52;;;;;;;8.15;5.90;;;26.20;72.30;;;;;;5092614;28;20035;-81
2023/06/11 01:19:33;;;;;;;8.48;6.60;;;26.20;72.40;;;;;;5092141;28;20020;-82
2023/06/11 01:22:08;;;;;;;10.02;6.50;;;26.20;72.60;;;;;;5096477;28;20081;-76
2023/06/11 01:25:10;;;;;;;6.68;6.00;;;26.10;72.60;;;;;;5096327;28;20066;-82
2023/06/11 01:28:00;;;;;;;7.55;6.72;;;26.10;72.60;;;;;;5096076;28;20047;-81
2023/06/11 01:30:28;;;;;;;7.30;5.85;;;26.10;72.80;;;;;;5096022;28;20080;-75
2023/06/11 01:32:56;;;;;;;7.25;6.03;;;26.10;72.90;;;;;;5095968;28;20028;-75
2023/06/11 01:35:22;;;;;;;9.70;6.28;;;26.00;73.00;;;;;;5095830;28;20498;-83
2023/06/11 01:37:55;;;;;;;7.97;6.80;;;26.00;73.10;;;;;;5095766;28;20032;-83
2023/06/11 01:40:25;;;;;;;8.23;6.18;;;26.00;73.20;;;;;;5095675;28;20027;-83
2023/06/11 01:42:52;;;;;;;8.80;6.85;;;26.00;73.20;;;;;;5095985;28;20099;-82
2023/06/11 01:45:18;;;;;;;6.95;5.85;;;25.90;73.30;;;;;;5095663;28;20024;-80
2023/06/11 01:47:44;;;;;;;7.60;6.78;;;25.90;73.30;;;;;;5095551;28;20016;-82
2023/06/11 01:50:12;;;;;;;8.68;6.57;;;25.90;73.40;;;;;;5095618;28;20020;-81
2023/06/11 01:52:41;;;;;;;7.93;6.57;;;25.80;73.50;;;;;;5095810;28;20515;-83
2023/06/11 01:55:08;;;;;;;12.18;7.25;;;25.80;73.60;;;;;;5095529;28;20024;-67
2023/06/11 01:57:34;;;;;;;9.63;6.75;;;25.80;73.70;;;;;;5095630;28;20032;-71
2023/06/11 02:00:00;;;;;;;11.98;7.55;;;25.80;73.80;;;;;;5095342;28;20106;-82
2023/06/11 02:02:27;;;;;;;11.60;7.32;;;25.80;73.90;;;;;;5095346;28;20488;-77
2023/06/11 02:04:52;;;;;;;8.50;7.05;;;25.70;74.00;;;;;;5095355;28;20016;-70
2023/06/11 02:07:18;;;;;;;10.23;7.15;;;25.70;74.00;;;;;;5095382;28;20484;-74
2023/06/11 02:09:44;;;;;;;12.02;7.70;;;25.70;74.10;;;;;;5095142;28;20487;-67
2023/06/11 02:12:09;;;;;;;8.32;7.00;;;25.70;74.20;;;;;;5095557;28;20016;-67
2023/06/11 02:14:35;;;;;;;7.35;6.57;;;25.60;74.20;;;;;;5095461;28;20022;-66
2023/06/11 02:17:01;;;;;;;9.80;7.35;;;25.60;74.20;;;;;;5095398;28;20036;-70
2023/06/11 02:19:27;;;;;;;7.95;7.15;;;25.60;74.40;;;;;;5095503;28;20073;-67
2023/06/11 02:21:52;;;;;;;10.68;7.32;;;25.60;74.40;;;;;;5093667;28;20103;-67
2023/06/11 02:24:18;;;;;;;7.97;7.00;;;25.50;74.50;;;;;;5095048;28;20500;-67
2023/06/11 02:26:43;;;;;;;11.60;7.63;;;25.50;74.70;;;;;;5094978;28;20108;-67
2023/06/11 02:29:09;;;;;;;8.75;6.97;;;25.50;74.80;;;;;;5094969;28;20101;-78
2023/06/11 02:31:34;;;;;;;8.05;7.25;;;25.50;74.80;;;;;;5094411;28;20031;-82
2023/06/11 02:34:00;;;;;;;8.18;7.35;;;25.40;74.90;;;;;;5094949;28;20103;-82
2023/06/11 02:36:25;;;;;;;8.25;7.28;;;25.40;75.60;;;;;;5094507;28;20074;-81
2023/06/11 02:38:51;;;;;;;8.30;7.45;;;25.40;75.10;;;;;;5094767;28;20031;-83
2023/06/11 02:41:16;;;;;;;8.45;6.78;;;25.30;75.00;;;;;;5094614;28;20028;-79
2023/06/11 02:43:42;;;;;;;7.53;6.93;;;25.30;75.00;;;;;;5094811;28;20023;-80
2023/06/11 02:46:08;;;;;;;7.80;6.97;;;25.30;75.20;;;;;;5094251;28;20377;-78
2023/06/11 02:48:33;;;;;;;8.68;7.72;;;25.30;75.20;;;;;;5094742;28;20028;-78
2023/06/11 02:50:59;;;;;;;9.52;7.28;;;25.30;75.30;;;;;;5094409;28;20027;-81
2023/06/11 02:53:24;;;;;;;8.75;7.10;;;25.30;75.40;;;;;;5094486;28;20024;-83
2023/06/11 02:55:50;;;;;;;9.82;7.50;;;25.30;75.50;;;;;;5094315;28;20031;-80
2023/06/11 02:58:15;;;;;;;10.68;7.97;;;25.20;75.50;;;;;;5094332;28;20032;-80
2023/06/11 03:00:41;;;;;;;10.05;7.35;;;25.20;75.60;;;;;;5094007;28;20522;-77
2023/06/11 03:03:06;;;;;;;11.98;7.65;;;25.20;75.70;;;;;;5094367;28;20024;-79
2023/06/11 03:05:32;;;;;;;11.25;7.13;;;25.10;75.70;;;;;;5094166;28;20028;-84
2023/06/11 03:07:57;;;;;;;9.10;7.20;;;25.10;75.80;;;;;;5094622;28;20039;-82
2023/06/11 03:10:27;;;;;;;12.55;7.45;;;25.10;75.80;;;;;;5094065;28;20052;-77
2023/06/11 03:12:56;;;;;;;10.93;7.75;;;25.10;75.90;;;;;;5094046;28;20431;-84
2023/06/11 03:15:22;;;;;;;7.32;6.63;;;25.10;75.90;;;;;;5093895;28;20422;-83
2023/06/11 03:17:47;;;;;;;8.48;7.43;;;25.10;76.00;;;;;;5093827;28;20473;-66
2023/06/11 03:20:13;;;;;;;8.52;7.20;;;25.00;76.00;;;;;;5093856;28;20524;-68
2023/06/11 03:22:39;;;;;;;8.82;7.18;;;25.00;76.00;;;;;;5094027;28;20024;-67
2023/06/11 03:25:05;;;;;;;10.80;7.63;;;25.00;76.10;;;;;;5093999;28;20153;-67
2023/06/11 03:27:31;;;;;;;12.85;7.80;;;24.90;76.20;;;;;;5093791;28;20040;-67
2023/06/11 03:29:56;;;;;;;8.50;7.72;;;24.90;76.30;;;;;;5093462;28;20020;-66
2023/06/11 03:32:22;;;;;;;8.10;7.30;;;24.90;76.40;;;;;;5093641;28;20020;-82
2023/06/11 03:34:51;;;;;;;8.07;7.03;;;24.90;76.50;;;;;;5093792;28;20027;-83
2023/06/11 03:37:17;;;;;;;11.88;8.30;;;24.90;76.60;;;;;;5093618;28;20035;-82
2023/06/11 03:39:43;;;;;;;8.32;7.47;;;24.80;76.70;;;;;;5093744;28;20012;-84
2023/06/11 03:42:09;;;;;;;10.00;8.00;;;24.80;76.70;;;;;;5093286;28;20373;-81
2023/06/11 03:44:35;;;;;;;9.45;7.97;;;24.80;76.70;;;;;;5093323;28;20020;-84
2023/06/11 03:47:00;;;;;;;12.90;7.70;;;24.80;76.70;;;;;;5093499;28;20103;-82
2023/06/11 03:49:26;;;;;;;7.82;7.13;;;24.80;76.70;;;;;;5093671;28;20020;-82
2023/06/11 03:51:52;;;;;;;8.45;7.55;;;24.80;76.80;;;;;;5093604;28;20465;-78
2023/06/11 03:54:17;;;;;;;8.30;7.38;;;24.80;76.90;;;;;;5093379;28;20094;-83
2023/06/11 03:56:43;;;;;;;8.98;8.07;;;24.70;77.00;;;;;;5093220;28;20094;-81
2023/06/11 03:59:08;;;;;;;8.80;7.45;;;24.70;77.10;;;;;;5093324;28;20031;-84
2023/06/11 04:01:34;;;;;;;8.80;8.00;;;24.70;77.10;;;;;;5093424;28;20039;-68
2023/06/11 04:04:00;;;;;;;9.10;7.57;;;24.60;77.20;;;;;;5093470;28;20106;-67
2023/06/11 04:06:27;;;;;;;8.98;8.18;;;24.70;77.30;;;;;;5093340;28;20472;-67
2023/06/11 04:08:53;;;;;;;10.13;7.63;;;24.70;77.30;;;;;;5093255;28;20032;-66
2023/06/11 04:11:18;;;;;;;9.88;8.07;;;24.60;77.30;;;;;;5093387;28;20019;-67
2023/06/11 04:13:49;;;;;;;11.20;8.35;;;24.60;77.50;;;;;;5092916;28;20020;-67
2023/06/11 04:16:18;;;;;;;11.95;8.18;;;24.60;77.50;;;;;;5093094;28;20388;-67
2023/06/11 04:18:44;;;;;;;8.85;7.53;;;24.60;77.50;;;;;;5093108;28;20032;-67
2023/06/11 04:21:09;;;;;;;10.68;8.10;;;24.60;77.60;;;;;;5089295;28;20382;-67
2023/06/11 04:23:36;;;;;;;9.38;8.40;;;24.60;77.60;;;;;;5092834;28;20032;-67
2023/06/11 04:26:02;;;;;;;9.02;8.20;;;24.60;77.70;;;;;;5090409;28;20024;-67
2023/06/11 04:28:28;;;;;;;9.52;7.97;;;24.50;77.70;;;;;;5071825;28;20024;-67
2023/06/11 04:30:57;;;;;;;10.52;7.97;;;24.50;77.70;;;;;;5070833;28;20484;-66
2023/06/11 04:33:32;;;;;;;11.77;8.30;;;24.50;77.80;;;;;;5070711;28;20032;-66
2023/06/11 04:36:04;;;;;;;9.15;8.25;;;24.50;77.80;;;;;;5087739;28;20040;-68
2023/06/11 04:38:30;;;;;;;9.68;7.82;;;24.50;77.90;;;;;;5092886;28;20396;-85
2023/06/11 04:40:56;;;;;;;8.60;7.70;;;24.40;77.90;;;;;;5084150;28;20021;-80
2023/06/11 04:43:23;;;;;;;9.00;8.10;;;24.40;78.10;;;;;;5076579;28;20101;-84
2023/06/11 04:45:55;;;;;;;8.93;7.85;;;24.40;78.20;;;;;;5083983;28;20027;-84
2023/06/11 04:48:21;;;;;;;11.48;8.13;;;24.40;78.40;;;;;;5093084;28;20396;-79
2023/06/11 04:50:51;;;;;;;7.97;7.28;;;24.40;78.40;;;;;;5090629;28;20024;-77
2023/06/11 04:53:22;;;;;;;8.77;7.97;;;24.40;78.40;;;;;;5092814;28;20039;-80
2023/06/11 04:55:54;;;;;;;9.40;8.60;;;24.40;78.50;;;;;;5094730;28;20024;-83
2023/06/11 04:58:27;;;;;;;8.90;7.85;;;24.30;78.50;;;;;;5096558;28;20040;-76
2023/06/11 05:00:57;;;;;;;9.57;8.20;;;24.30;78.60;;;;;;5095721;28;20012;-82
2023/06/11 05:03:24;;;;;;;10.20;8.52;;;24.30;78.80;;;;;;5096346;28;20542;-83
2023/06/11 05:05:51;;;;;;;11.00;8.25;;;24.30;78.80;;;;;;5095448;28;20099;-66
2023/06/11 05:08:24;;;;;;;10.35;8.63;;;24.30;78.90;;;;;;5108683;28;20035;-70
2023/06/11 05:10:53;;;;;;;9.23;8.35;;;24.40;79.00;;;;;;5095796;28;20035;-66
2023/06/11 05:13:24;;;;;;;9.40;8.45;;;24.30;79.00;;;;;;5096121;28;20032;-83
2023/06/11 05:15:51;;;;;;;8.93;8.02;;;24.30;79.30;;;;;;5096553;28;20082;-83
2023/06/11 05:18:17;;;;;;;9.18;8.27;;;24.30;79.30;;;;;;5096381;28;20110;-83
2023/06/11 05:20:43;;;;;;;10.70;8.80;;;24.30;79.40;;;;;;5096102;28;20043;-81
2023/06/11 05:23:08;;;;;;;11.27;8.55;;;24.30;79.50;;;;;;5085468;28;20540;-84
2023/06/11 05:25:35;;;;;;;11.77;8.40;;;24.30;79.70;;;;;;5083052;28;20031;-84
2023/06/11 05:28:01;;;;;;;9.90;8.68;;;24.30;79.80;;;;;;5096241;28;20024;-85
2023/06/11 05:30:36;;;;;;;10.18;8.52;;;24.30;79.90;;;;;;5096024;28;20044;-84
2023/06/11 05:33:02;;;;;;;8.88;8.00;;;24.30;79.90;;;;;;5094398;28;20024;-83
2023/06/11 05:35:28;;;;;;;9.23;8.32;;;24.30;80.10;;;;;;5088537;28;20412;-84
2023/06/11 05:37:57;;;;;;;10.05;8.13;;;24.30;80.30;;;;;;5080500;28;20028;-72
2023/06/11 05:40:23;;;;;;;11.43;7.95;;;24.30;80.20;;;;;;5091507;28;20024;-76
2023/06/11 05:42:49;;;;;;;9.45;8.45;;;24.40;80.30;;;;;;5096220;28;20398;-84
2023/06/11 05:45:16;;;;;;;8.98;8.07;;;24.40;80.20;;;;;;5095759;28;20031;-84
2023/06/11 05:47:41;;;;;;;9.73;8.40;;;24.40;80.00;;;;;;5095516;28;20067;-85
2023/06/11 05:50:08;;;;;;;9.70;7.82;;;24.40;80.00;;;;;;5094970;28;20048;-71
2023/06/11 05:52:33;;;;;;;11.52;8.10;;;24.50;80.00;;;;;;5094395;28;20016;-83
2023/06/11 05:54:59;;;;;;;10.85;8.23;;;24.60;79.80;;;;;;5086342;28;20024;-75
2023/06/11 05:57:25;;;;;;;12.27;7.97;;;24.70;79.80;;;;;;5078326;28;20040;-82
2023/06/11 05:59:51;;;;;;;9.68;8.38;;;24.70;79.70;;;;;;5077748;28;20103;-80
2023/06/11 06:02:18;;;;;;;13.45;8.38;;;24.80;79.60;;;;;;5095124;28;20020;-77
2023/06/11 06:04:46;;;;;;;8.45;7.53;;;24.80;79.50;;;;;;5095157;28;20024;-84
2023/06/11 06:07:11;;;;;;;8.10;7.30;;;24.90;79.50;;;;;;5094649;28;20028;-75
2023/06/11 06:09:37;;;;;;;9.20;7.40;;;24.90;79.40;;;;;;5094665;28;20031;-71
2023/06/11 06:12:03;;;;;;;11.65;7.40;;;25.00;79.30;;;;;;5093255;28;20029;-85
2023/06/11 06:14:28;;;;;;;9.93;8.02;;;25.10;79.40;;;;;;5081149;28;20020;-73
2023/06/11 06:16:54;;;;;;;8.85;7.68;;;25.10;78.90;;;;;;5095024;28;20085;-67
2023/06/11 06:19:20;;;;;;;8.70;7.80;;;25.20;78.80;;;;;;5094928;28;20020;-70
2023/06/11 06:21:45;;;;;;;8.63;7.75;;;25.30;79.00;;;;;;5087791;28;20077;-69
2023/06/11 06:24:11;;;;;;;9.73;8.13;;;25.30;78.70;;;;;;5077309;28;20036;-70
2023/06/11 06:26:40;;;;;;;8.90;7.30;;;25.40;78.70;;;;;;5090327;28;20028;-67
2023/06/11 06:29:07;;;;;;;8.43;7.15;;;25.50;78.70;;;;;;5093203;28;20568;-66
2023/06/11 06:31:33;;;;;;;9.07;7.05;;;25.50;78.60;;;;;;5092635;28;20106;-66
2023/06/11 06:33:58;;;;;;;7.53;6.65;;;25.60;78.80;;;;;;5093597;28;20107;-65
2023/06/11 06:36:24;;;;;;;9.43;7.20;;;25.70;78.90;;;;;;5092699;28;20028;-65
2023/06/11 06:38:50;;;;;;;8.40;7.65;;;25.80;79.20;;;;;;5083310;28;20467;-65
2023/06/11 06:41:15;;;;;;;7.82;7.00;;;25.80;78.30;;;;;;5092437;28;20028;-65
2023/06/11 06:43:41;;;;;;;7.57;6.88;;;25.90;78.50;;;;;;5093166;28;20081;-64
2023/06/11 06:46:08;;;;;;;8.20;6.90;;;26.00;78.60;;;;;;5092997;28;20107;-69
2023/06/11 06:48:34;;;;;;;7.68;6.90;;;26.00;78.50;;;;;;5089196;28;20024;-65
2023/06/11 06:51:00;;;;;;;9.20;7.00;;;26.10;78.50;;;;;;5087147;28;20491;-64
2023/06/11 06:53:26;;;;;;;7.78;7.07;;;26.20;78.40;;;;;;5092529;28;20020;-65
2023/06/11 06:55:52;;;;;;;8.38;6.70;;;26.20;78.30;;;;;;5088453;28;20031;-65
2023/06/11 06:58:18;;;;;;;9.45;7.28;;;26.30;78.20;;;;;;5096011;28;20039;-82
2023/06/11 07:00:45;;;;;;;7.10;6.32;;;26.30;78.10;;;;;;5091876;28;20024;-72
2023/06/11 07:03:13;;;;;;;7.53;6.82;;;26.50;78.30;;;;;;5087313;28;20028;-74
2023/06/11 07:05:40;;;;;;;11.55;7.00;;;26.60;78.00;;;;;;5078464;28;20035;-69
2023/06/11 07:08:08;;;;;;;7.20;6.50;;;26.60;77.50;;;;;;5076323;28;20365;-67
2023/06/11 07:10:34;;;;;;;7.53;6.65;;;26.70;77.20;;;;;;5076851;28;20028;-73
2023/06/11 07:13:00;;;;;;;7.97;6.95;;;26.80;77.30;;;;;;5075191;28;20020;-65
2023/06/11 07:15:25;;;;;;;9.43;7.10;;;26.80;77.60;;;;;;5075484;28;20024;-69
2023/06/11 07:17:51;;;;;;;9.90;6.90;;;26.90;77.10;;;;;;5075941;28;20035;-65
2023/06/11 07:20:16;;;;;;;6.63;5.72;;;27.00;76.40;;;;;;5079880;28;20488;-63
2023/06/11 07:22:42;;;;;;;9.55;6.68;;;27.20;76.70;;;;;;5085095;28;20305;-65
2023/06/11 07:25:08;;;;;;;7.00;6.28;;;27.30;76.20;;;;;;5085322;28;20130;-64
2023/06/11 07:27:34;;;;;;;6.35;5.72;;;27.30;76.40;;;;;;5079843;28;20028;-69
2023/06/11 07:29:59;;;;;;;6.60;5.97;;;27.40;76.40;;;;;;5072872;28;20642;-67
2023/06/11 07:32:25;;;;;;;8.32;6.00;;;27.50;75.90;;;;;;5079550;28;20488;-65
2023/06/11 07:34:50;;;;;;;7.57;5.80;;;27.50;77.00;;;;;;5085631;28;20017;-72
2023/06/11 07:37:16;;;;;;;6.65;5.95;;;27.60;76.20;;;;;;5080920;28;20489;-68
2023/06/11 07:39:43;;;;;;;9.23;6.65;;;27.60;75.60;;;;;;5078122;28;20031;-70
2023/06/11 07:42:08;;;;;;;10.93;5.97;;;27.70;77.20;;;;;;5072462;28;20031;-68
2023/06/11 07:44:34;;;;;;;5.82;5.25;;;27.60;77.50;;;;;;5072790;28;20020;-68
2023/06/11 07:47:00;;;;;;;5.82;5.28;;;27.70;75.60;;;;;;5084282;28;20464;-67
2023/06/11 07:49:25;;;;;;;6.95;5.25;;;27.80;75.30;;;;;;5078707;28;20028;-74
2023/06/11 07:51:51;;;;;;;7.63;5.63;;;27.90;75.70;;;;;;5084043;28;20024;-77
2023/06/11 07:54:17;;;;;;;7.15;5.82;;;27.90;75.90;;;;;;5084521;28;20536;-69
2023/06/11 07:56:46;;;;;;;6.18;5.55;;;28.00;75.10;;;;;;5075909;28;20115;-69
2023/06/11 07:59:12;;;;;;;8.80;5.97;;;28.10;74.80;;;;;;5081973;28;20120;-70
2023/06/11 08:01:38;;;;;;;7.22;5.80;;;28.20;74.70;;;;;;5090705;28;20477;-74
2023/06/11 08:04:03;;;;;;;7.18;6.07;;;28.20;74.90;;;;;;5089471;28;20103;-69
2023/06/11 08:06:29;;;;;;;7.65;5.85;;;28.30;74.70;;;;;;5086067;28;20039;-69
2023/06/11 08:08:56;;;;;;;6.20;5.57;;;28.40;75.00;;;;;;5082347;28;20106;-65
2023/06/11 08:11:22;;;;;;;5.78;5.18;;;28.40;74.80;;;;;;5084687;28;20020;-65
2023/06/11 08:13:48;;;;;;;7.72;5.60;;;28.40;74.40;;;;;;5088991;28;20073;-66
2023/06/11 08:16:15;;;;;;;7.22;5.35;;;28.40;74.90;;;;;;5084066;28;20440;-69
2023/06/11 08:18:41;;;;;;;8.25;5.72;;;28.50;75.00;;;;;;5084545;28;20082;-66
2023/06/11 08:21:06;;;;;;;6.35;5.22;;;28.50;74.90;;;;;;5087421;28;20024;-66
2023/06/11 08:23:35;;;;;;;6.28;5.50;;;28.60;74.40;;;;;;5084345;28;20120;-66
2023/06/11 08:26:01;;;;;;;6.10;5.50;;;28.70;74.50;;;;;;5087922;28;20074;-67
2023/06/11 08:28:27;;;;;;;6.13;5.30;;;28.80;74.20;;;;;;5085851;28;20040;-69
2023/06/11 08:30:54;;;;;;;8.10;5.45;;;28.90;73.90;;;;;;5085113;28;20021;-66
2023/06/11 08:33:20;;;;;;;7.65;5.60;;;28.80;74.80;;;;;;5083268;28;20016;-67
2023/06/11 08:35:47;;;;;;;6.15;4.95;;;28.80;74.40;;;;;;5084820;28;20478;-68
2023/06/11 08:38:12;;;;;;;5.70;5.20;;;28.90;74.30;;;;;;5082319;28;20509;-65
2023/06/11 08:40:42;;;;;;;7.15;5.22;;;28.90;74.60;;;;;;5080757;28;20024;-69
2023/06/11 08:43:11;;;;;;;5.90;5.40;;;28.80;74.60;;;;;;5093837;28;20040;-64
2023/06/11 08:45:37;;;;;;;6.20;5.13;;;28.90;74.80;;;;;;5082943;28;20071;-66
2023/06/11 08:48:04;;;;;;;8.35;5.30;;;28.90;75.50;;;;;;5092742;28;20047;-64
2023/06/11 08:50:31;;;;;;;6.78;6.13;;;28.90;75.00;;;;;;5095695;28;20082;-63
2023/06/11 08:53:01;;;;;;;9.25;6.22;;;28.90;75.30;;;;;;5093282;28;20022;-66
2023/06/11 08:55:29;;;;;;;8.00;6.22;;;29.00;75.10;;;;;;5087446;28;20052;-66
2023/06/11 08:57:54;;;;;;;8.15;5.85;;;29.00;74.60;;;;;;5084097;28;20047;-66
2023/06/11 09:00:21;;;;;;;6.20;5.70;;;29.20;74.30;;;;;;5094790;28;20028;-66
2023/06/11 09:02:47;;;;;;;9.02;5.97;;;29.30;74.00;;;;;;5094824;28;20039;-66
2023/06/11 09:05:12;;;;;;;7.90;5.55;;;29.30;74.10;;;;;;5094762;28;20024;-64
2023/06/11 09:07:50;;;;;;;6.50;5.00;;;29.40;73.60;;;;;;5094764;28;20119;-64
2023/06/11 09:10:16;;;;;;;9.10;5.90;;;29.40;74.10;;;;;;5096748;28;20012;-66
2023/06/11 09:12:41;;;;;;;6.68;5.40;;;29.40;73.90;;;;;;5096967;28;20039;-72
2023/06/11 09:15:07;;;;;;;6.60;5.90;;;29.40;73.90;;;;;;5087547;28;20143;-77
2023/06/11 09:17:38;;;;;;;6.00;5.50;;;29.50;73.60;;;;;;5082568;28;20051;-79
2023/06/11 09:20:06;;;;;;;5.32;4.82;;;29.50;74.00;;;;;;5093177;28;20385;-78
2023/06/11 09:22:34;;;;;;;7.15;5.30;;;29.50;74.10;;;;;;5091938;28;20110;-73
2023/06/11 09:25:03;;;;;;;7.45;5.60;;;29.60;72.50;;;;;;5083917;28;20488;-77
2023/06/11 09:27:28;;;;;;;6.50;5.35;;;29.60;72.20;;;;;;5080585;28;20024;-73
2023/06/11 09:29:54;;;;;;;5.80;5.20;;;29.70;72.50;;;;;;5081443;28;20028;-78
2023/06/11 09:32:20;;;;;;;6.05;5.35;;;29.70;71.50;;;;;;5090008;28;20164;-76
2023/06/11 09:34:46;;;;;;;5.25;4.78;;;29.70;72.90;;;;;;5089081;28;20102;-71
2023/06/11 09:37:11;;;;;;;7.55;4.90;;;29.70;71.80;;;;;;5093517;28;20036;-76
2023/06/11 09:39:39;;;;;;;10.20;5.45;;;29.60;72.60;;;;;;5090853;28;20020;-72
2023/06/11 09:42:05;;;;;;;6.45;5.68;;;29.60;72.70;;;;;;5083292;28;20020;-75
2023/06/11 09:44:33;;;;;;;5.97;4.93;;;29.60;72.40;;;;;;5085305;28;20024;-75
2023/06/11 09:46:59;;;;;;;5.07;4.60;;;29.60;72.40;;;;;;5091702;28;20333;-72
2023/06/11 09:49:25;;;;;;;5.55;5.00;;;29.70;73.60;;;;;;5090210;28;20073;-77
2023/06/11 09:51:51;;;;;;;8.88;5.25;;;29.70;72.40;;;;;;5073608;28;20032;-71
2023/06/11 09:54:20;;;;;;;6.00;5.25;;;29.80;71.50;;;;;;5084782;28;20087;-71
2023/06/11 09:56:47;;;;;;;7.40;4.85;;;29.80;71.60;;;;;;5082772;28;20035;-68
2023/06/11 09:59:15;;;;;;;9.35;5.20;;;29.90;72.20;;;;;;5090319;28;20028;-70
2023/06/11 10:01:43;;;;;;;5.45;4.95;;;29.90;71.40;;;;;;5092026;28;20020;-70
2023/06/11 10:04:09;;;;;;;5.88;4.88;;;29.90;71.40;;;;;;5089694;28;20027;-71
2023/06/11 10:06:40;;;;;;;6.03;4.32;;;29.90;70.60;;;;;;5085090;28;20024;-71
2023/06/11 10:09:11;;;;;;;9.43;5.47;;;30.00;70.60;;;;;;5086411;28;20039;-71
2023/06/11 10:11:38;;;;;;;6.35;5.30;;;29.90;71.90;;;;;;5086588;28;20077;-70
2023/06/11 10:14:11;;;;;;;7.43;5.80;;;29.90;72.10;;;;;;5092015;28;20024;-82
2023/06/11 10:16:37;;;;;;;6.72;5.78;;;29.90;72.10;;;;;;5094314;28;20031;-73
2023/06/11 10:19:10;;;;;;;10.25;5.47;;;29.90;71.50;;;;;;5085561;28;20037;-75
2023/06/11 10:21:41;;;;;;;9.30;5.30;;;29.80;73.70;;;;;;5074578;28;20024;-68
2023/06/11 10:24:08;;;;;;;6.95;5.35;;;29.90;71.60;;;;;;5073915;28;20031;-67
2023/06/11 10:26:35;;;;;;;8.30;5.47;;;29.90;71.80;;;;;;5080750;28;20036;-69
2023/06/11 10:29:01;;;;;;;4.80;4.25;;;29.80;73.90;;;;;;5076093;28;20067;-70
2023/06/11 10:31:41;;;;;;;8.75;5.45;;;29.90;70.70;;;;;;5077845;28;20016;-69
2023/06/11 10:34:07;;;;;;;4.72;4.30;;;29.90;71.40;;;;;;5078041;28;20028;-68
2023/06/11 10:36:37;;;;;;;5.07;4.30;;;29.90;71.80;;;;;;5081953;28;20170;-66
2023/06/11 10:39:06;;;;;;;7.68;5.03;;;29.90;70.80;;;;;;5084770;28;20427;-67
2023/06/11 10:41:35;;;;;;;10.68;6.15;;;29.90;71.50;;;;;;5093106;28;20019;-71
2023/06/11 10:44:01;;;;;;;6.53;4.78;;;29.90;74.20;;;;;;5090032;28;20086;-67
2023/06/11 10:46:26;;;;;;;6.70;4.88;;;29.80;72.70;;;;;;5077184;28;20468;-71
2023/06/11 10:48:54;;;;;;;5.72;4.82;;;29.80;71.30;;;;;;5090715;28;20024;-68
2023/06/11 10:51:21;;;;;;;9.70;5.78;;;29.80;72.40;;;;;;5093820;28;20016;-68
2023/06/11 10:53:54;;;;;;;5.60;4.82;;;29.80;74.00;;;;;;5093016;28;20028;-71
2023/06/11 10:56:21;;;;;;;7.35;4.38;;;29.80;73.20;;;;;;5077007;28;20532;-74
2023/06/11 10:58:50;;;;;;;5.40;4.32;;;29.80;70.40;;;;;;5084625;28;20043;-68
2023/06/11 11:01:19;;;;;;;4.15;3.78;;;29.90;70.00;;;;;;5084842;28;20539;-67
2023/06/11 11:03:46;;;;;;;6.85;4.78;;;29.90;70.20;;;;;;5084193;28;20025;-70
2023/06/11 11:06:13;;;;;;;4.07;3.78;;;29.90;71.30;;;;;;5069953;28;20024;-69
2023/06/11 11:08:38;;;;;;;4.22;3.80;;;29.90;70.00;;;;;;5080975;28;20568;-70
2023/06/11 11:11:04;;;;;;;7.60;4.38;;;29.90;69.40;;;;;;5079915;28;20099;-76
2023/06/11 11:13:30;;;;;;;9.35;4.35;;;29.90;71.90;;;;;;5089390;28;20107;-71
2023/06/11 11:15:58;;;;;;;4.47;4.07;;;29.90;72.60;;;;;;5093160;28;20100;-71
2023/06/11 11:18:24;;;;;;;5.53;4.20;;;29.90;70.60;;;;;;5093001;28;20492;-71
2023/06/11 11:20:53;;;;;;;6.47;4.93;;;29.90;71.00;;;;;;5074185;28;20086;-68
2023/06/11 11:23:19;;;;;;;6.97;4.55;;;29.80;73.10;;;;;;5076221;28;20111;-69
2023/06/11 11:25:46;;;;;;;6.68;5.10;;;29.70;73.40;;;;;;5091243;28;20150;-71
2023/06/11 11:28:12;;;;;;;5.10;4.60;;;29.70;73.50;;;;;;5084388;28;20028;-70
2023/06/11 11:30:39;;;;;;;8.38;4.47;;;29.70;72.00;;;;;;5089887;28;20031;-70
2023/06/11 11:33:05;;;;;;;4.45;4.10;;;29.60;72.50;;;;;;5084053;28;20043;-71
2023/06/11 11:35:31;;;;;;;4.05;3.75;;;29.70;71.40;;;;;;5075605;28;20413;-75
2023/06/11 11:37:56;;;;;;;5.47;3.97;;;29.70;70.00;;;;;;5086796;28;20131;-74
2023/06/11 11:40:23;;;;;;;4.70;4.10;;;29.70;70.00;;;;;;5081934;28;20477;-74
2023/06/11 11:42:57;;;;;;;6.95;4.82;;;29.70;71.90;;;;;;5088203;28;20071;-75
2023/06/11 11:45:31;;;;;;;7.20;4.53;;;29.60;73.30;;;;;;5083721;28;20095;-70
2023/06/11 11:47:56;;;;;;;6.65;4.75;;;29.60;72.50;;;;;;5092508;28;20024;-68
2023/06/11 11:50:26;;;;;;;6.03;4.68;;;29.60;71.30;;;;;;5076128;28;20135;-70
2023/06/11 11:53:05;;;;;;;5.25;4.40;;;29.70;72.30;;;;;;5081846;28;20085;-69
2023/06/11 11:55:35;;;;;;;7.85;4.72;;;29.70;70.40;;;;;;5081469;28;20544;-68
2023/06/11 11:58:05;;;;;;;7.60;4.63;;;29.70;72.40;;;;;;5083328;28;20055;-66
2023/06/11 12:00:30;;;;;;;6.00;4.32;;;29.60;73.20;;;;;;5081638;28;20489;-65
2023/06/11 12:03:08;;;;;;;6.43;4.22;;;29.60;71.70;;;;;;5089527;28;20034;-65
2023/06/11 12:05:34;;;;;;;7.22;4.88;;;29.60;69.90;;;;;;5079130;28;20342;-71
2023/06/11 12:07:59;;;;;;;4.43;4.03;;;29.70;72.70;;;;;;5084801;28;20027;-70
2023/06/11 12:10:26;;;;;;;5.70;4.05;;;29.70;70.30;;;;;;5090225;28;20035;-65
2023/06/11 12:12:53;;;;;;;4.30;3.90;;;29.80;69.00;;;;;;5087175;28;20127;-66
2023/06/11 12:15:19;;;;;;;5.85;4.18;;;29.80;70.00;;;;;;5086894;28;20359;-67
2023/06/11 12:17:45;;;;;;;5.65;4.72;;;29.80;70.60;;;;;;5081383;28;20492;-67
2023/06/11 12:20:11;;;;;;;4.57;4.18;;;29.80;69.60;;;;;;5082274;28;20021;-66
2023/06/11 12:22:37;;;;;;;4.70;3.78;;;29.80;69.20;;;;;;5083097;28;20047;-68
2023/06/11 12:25:04;;;;;;;8.80;4.55;;;29.90;69.60;;;;;;5082393;28;20497;-64
2023/06/11 12:27:30;;;;;;;6.07;4.35;;;29.80;72.30;;;;;;5083058;28;20077;-68
2023/06/11 12:29:55;;;;;;;10.93;4.78;;;29.70;73.30;;;;;;5085566;28;20039;-71
2023/06/11 12:32:21;;;;;;;4.53;4.03;;;29.70;72.30;;;;;;5083019;28;20020;-66
2023/06/11 12:34:48;;;;;;;5.45;4.47;;;29.70;72.60;;;;;;5081601;28;20028;-65
2023/06/11 12:37:14;;;;;;;6.93;4.53;;;29.60;73.30;;;;;;5072391;28;20036;-67
2023/06/11 12:39:43;;;;;;;4.32;4.00;;;29.60;72.60;;;;;;5079503;28;20381;-65
2023/06/11 12:42:10;;;;;;;15.27;4.15;;;29.60;72.80;;;;;;5079200;28;20031;-71
2023/06/11 12:44:36;;;;;;;6.25;5.25;;;29.50;74.10;;;;;;5088833;28;20499;-66